createdAt,value
2022-11-05T00:02:38.082Z,6.18
2022-11-05T00:05:30.517Z,6.13
2022-11-05T00:08:22.987Z,6.55
2022-11-05T00:10:55.107Z,5.00
2022-11-05T00:13:45.533Z,6.10
2022-11-05T00:19:10.225Z,4.88
2022-11-05T00:22:00.363Z,4.82
2022-11-05T00:24:50.526Z,4.82
2022-11-05T00:27:22.712Z,6.57
2022-11-05T00:29:54.662Z,4.70
2022-11-05T00:32:29.429Z,5.47
2022-11-05T00:35:01.343Z,4.55
2022-11-05T00:37:33.339Z,5.03
2022-11-05T00:40:06.522Z,4.63
2022-11-05T00:42:59.306Z,4.05
2022-11-05T00:45:31.521Z,3.38
2022-11-05T00:48:24.396Z,3.40
2022-11-05T00:50:56.315Z,3.10
2022-11-05T00:53:28.300Z,3.38
2022-11-05T00:56:00.720Z,2.58
2022-11-05T00:58:32.691Z,1.92
2022-11-05T01:01:05.183Z,1.98
2022-11-05T01:03:39.870Z,2.00
2022-11-05T01:06:14.303Z,1.83
2022-11-05T01:08:46.835Z,2.00
2022-11-05T01:11:35.296Z,2.13
2022-11-05T01:14:09.448Z,1.70
2022-11-05T01:16:41.880Z,1.80
2022-11-05T01:19:15.439Z,1.33
2022-11-05T01:21:47.390Z,1.85
2022-11-05T01:24:19.252Z,1.25
2022-11-05T01:26:51.182Z,1.73
2022-11-05T01:29:23.053Z,1.40
2022-11-05T01:31:54.980Z,1.60
2022-11-05T01:34:28.319Z,1.55
2022-11-05T01:37:00.235Z,1.65
2022-11-05T01:39:32.123Z,1.70
2022-11-05T01:42:05.748Z,1.40
2022-11-05T01:44:58.081Z,1.20
2022-11-05T01:47:40.031Z,1.10
2022-11-05T01:50:27.299Z,1.33
2022-11-05T01:53:12.105Z,1.30
2022-11-05T01:55:48.107Z,1.38
2022-11-05T01:58:22.774Z,1.33
2022-11-05T02:00:56.220Z,1.50
2022-11-05T02:03:28.996Z,1.50
2022-11-05T02:06:03.814Z,1.15
2022-11-05T02:08:47.242Z,1.10
2022-11-05T02:11:20.352Z,1.30
2022-11-05T02:13:52.689Z,1.27
2022-11-05T02:16:36.714Z,1.17
2022-11-05T02:19:39.084Z,1.15
2022-11-05T02:22:32.207Z,1.10
2022-11-05T02:25:27.901Z,1.40
2022-11-05T02:28:17.753Z,1.10
2022-11-05T02:30:55.108Z,1.08
2022-11-05T02:33:38.783Z,1.10
2022-11-05T02:36:25.472Z,1.25
2022-11-05T02:39:12.030Z,1.10
2022-11-05T02:42:03.494Z,1.10
2022-11-05T02:44:44.747Z,1.05
2022-11-05T02:47:25.958Z,0.98
2022-11-05T02:50:12.022Z,1.10
2022-11-05T02:52:51.502Z,1.20
2022-11-05T02:55:27.657Z,1.40
2022-11-05T02:58:02.107Z,0.90
2022-11-05T03:00:40.818Z,1.25
2022-11-05T03:03:18.616Z,0.80
2022-11-05T03:06:13.587Z,0.98
2022-11-05T03:08:57.715Z,0.70
2022-11-05T03:11:32.778Z,0.57
2022-11-05T03:14:17.356Z,0.60
2022-11-05T03:16:57.334Z,0.85
2022-11-05T03:19:39.683Z,0.70
2022-11-05T03:22:16.222Z,0.75
2022-11-05T03:24:53.234Z,1.10
2022-11-05T03:27:30.117Z,1.08
2022-11-05T03:30:05.572Z,1.15
2022-11-05T03:32:43.013Z,0.77
2022-11-05T03:35:23.070Z,0.60
2022-11-05T03:37:59.202Z,0.55
2022-11-05T03:40:35.057Z,1.00
2022-11-05T03:43:09.041Z,0.60
2022-11-05T03:45:48.600Z,0.63
2022-11-05T03:48:25.469Z,0.63
2022-11-05T03:51:03.100Z,0.88
2022-11-05T03:53:41.410Z,0.60
2022-11-05T03:56:20.383Z,0.40
2022-11-05T03:58:58.650Z,0.50
2022-11-05T04:01:31.652Z,0.50
2022-11-05T04:04:04.075Z,0.32
2022-11-05T04:06:56.011Z,0.30
2022-11-05T04:09:46.368Z,0.47
2022-11-05T04:15:09.034Z,0.30
2022-11-05T04:17:40.943Z,0.35
2022-11-05T04:20:31.685Z,0.43
2022-11-05T04:23:25.435Z,0.70
2022-11-05T04:25:57.344Z,0.40
2022-11-05T04:28:49.201Z,0.40
2022-11-05T04:31:21.171Z,0.40
2022-11-05T04:33:53.081Z,0.40
2022-11-05T04:36:25.010Z,0.40
2022-11-05T04:38:58.353Z,0.50
2022-11-05T04:41:30.273Z,0.40
2022-11-05T04:44:02.468Z,0.40
2022-11-05T04:46:34.392Z,0.38
2022-11-05T04:49:06.290Z,0.50
2022-11-05T04:51:38.182Z,0.68
2022-11-05T04:54:11.471Z,0.60
2022-11-05T04:56:43.407Z,0.90
2022-11-05T04:59:15.322Z,0.80
2022-11-05T05:01:51.620Z,1.00
2022-11-05T05:04:23.604Z,0.73
2022-11-05T05:06:55.523Z,0.70
2022-11-05T05:09:28.763Z,0.88
2022-11-05T05:12:02.554Z,0.55
2022-11-05T05:14:34.630Z,0.90
2022-11-05T05:17:06.588Z,1.10
2022-11-05T05:19:56.982Z,0.80
2022-11-05T05:25:03.477Z,1.10
2022-11-05T05:27:35.398Z,0.98
2022-11-05T05:30:09.044Z,0.90
2022-11-05T05:32:40.953Z,2.17
2022-11-05T05:35:12.941Z,1.95
2022-11-05T05:37:44.870Z,1.27
2022-11-05T05:40:18.294Z,1.50
2022-11-05T05:42:53.793Z,1.10
2022-11-05T05:45:25.706Z,1.63
2022-11-05T05:47:57.744Z,1.63
2022-11-05T05:50:29.820Z,1.75
2022-11-05T05:53:01.841Z,1.55
2022-11-05T05:55:35.586Z,1.75
2022-11-05T05:58:07.614Z,1.48
2022-11-05T06:00:39.541Z,2.33
2022-11-05T06:03:11.823Z,2.90
2022-11-05T06:05:43.995Z,2.40
2022-11-05T06:08:16.001Z,2.00
2022-11-05T06:10:52.407Z,2.20
2022-11-05T06:13:24.408Z,1.90
2022-11-05T06:16:00.374Z,2.20
2022-11-05T06:18:33.267Z,1.90
2022-11-05T06:21:07.222Z,2.13
2022-11-05T06:23:40.617Z,1.90
2022-11-05T06:26:16.657Z,1.92
2022-11-05T06:28:48.584Z,1.73
2022-11-05T06:31:20.683Z,1.55
2022-11-05T06:33:52.698Z,2.03
2022-11-05T06:36:24.640Z,1.75
2022-11-05T06:38:56.689Z,2.25
2022-11-05T06:41:30.092Z,1.30
2022-11-05T06:44:02.088Z,2.28
2022-11-05T06:46:34.119Z,2.20
2022-11-05T06:49:06.108Z,1.98
2022-11-05T06:51:38.067Z,1.98
2022-11-05T06:54:10.313Z,1.75
2022-11-05T06:56:43.599Z,1.70
2022-11-05T06:59:15.691Z,1.70
2022-11-05T07:01:47.676Z,1.45
2022-11-05T07:04:19.754Z,1.55
2022-11-05T07:06:51.658Z,1.50
2022-11-05T07:09:23.998Z,1.33
2022-11-05T07:11:57.361Z,2.20
2022-11-05T07:14:29.252Z,1.88
2022-11-05T07:17:01.186Z,3.65
2022-11-05T07:19:33.211Z,2.50
2022-11-05T07:22:05.125Z,2.67
2022-11-05T07:24:37.227Z,2.45
2022-11-05T07:27:10.525Z,4.10
2022-11-05T07:29:42.623Z,2.70
2022-11-05T07:32:14.579Z,2.00
2022-11-05T07:34:46.561Z,1.75
2022-11-05T07:37:18.546Z,1.50
2022-11-05T07:39:50.715Z,1.65
2022-11-05T07:42:24.036Z,1.83
2022-11-05T07:44:55.991Z,2.15
2022-11-05T07:47:27.875Z,1.70
2022-11-05T07:49:59.813Z,1.45
2022-11-05T07:52:32.303Z,1.35
2022-11-05T07:55:05.011Z,1.90
2022-11-05T07:57:45.537Z,2.03
2022-11-05T08:00:20.378Z,2.13
2022-11-05T08:03:07.243Z,2.42
2022-11-05T08:05:42.118Z,2.42
2022-11-05T08:08:15.653Z,2.78
2022-11-05T08:10:48.004Z,2.65
2022-11-05T08:13:21.502Z,3.20
2022-11-05T08:15:53.462Z,2.90
2022-11-05T08:18:31.671Z,3.00
2022-11-05T08:21:05.861Z,3.60
2022-11-05T08:23:39.088Z,3.15
2022-11-05T08:26:11.305Z,3.60
2022-11-05T08:28:44.930Z,3.50
2022-11-05T08:31:18.227Z,3.53
2022-11-05T08:33:50.572Z,3.13
2022-11-05T08:36:22.535Z,3.30
2022-11-05T08:38:54.753Z,3.67
2022-11-05T08:41:26.843Z,4.10
2022-11-05T08:44:00.177Z,4.68
2022-11-05T08:46:32.130Z,3.95
2022-11-05T08:49:04.612Z,4.70
2022-11-05T08:51:36.583Z,4.25
2022-11-05T08:54:08.545Z,4.00
2022-11-05T08:56:40.537Z,4.43
2022-11-05T08:59:13.838Z,4.82
2022-11-05T09:01:45.950Z,4.53
2022-11-05T09:04:17.997Z,4.63
2022-11-05T09:06:49.992Z,4.35
2022-11-05T09:09:21.969Z,4.32
2022-11-05T09:14:47.437Z,4.55
2022-11-05T09:17:21.546Z,4.47
2022-11-05T09:19:53.474Z,4.72
2022-11-05T09:22:25.472Z,5.35
2022-11-05T09:24:57.378Z,4.47
2022-11-05T09:27:29.384Z,5.22
2022-11-05T09:30:03.088Z,5.30
2022-11-05T09:32:35.107Z,5.80
2022-11-05T09:35:07.760Z,5.03
2022-11-05T09:37:39.698Z,4.95
2022-11-05T09:40:17.933Z,17.33
2022-11-05T09:42:52.538Z,6.45
2022-11-05T09:45:29.015Z,6.70
2022-11-05T09:48:05.420Z,5.10
2022-11-05T09:50:41.006Z,4.85
2022-11-05T09:53:15.937Z,5.30
2022-11-05T09:55:51.539Z,5.30
2022-11-05T09:58:36.190Z,5.63
2022-11-05T10:01:15.101Z,6.32
2022-11-05T10:03:50.886Z,5.65
2022-11-05T10:06:25.497Z,5.53
2022-11-05T10:09:03.802Z,5.57
2022-11-05T10:11:40.553Z,5.80
2022-11-05T10:14:17.240Z,5.85
2022-11-05T10:16:54.567Z,6.25
2022-11-05T10:19:33.567Z,6.40
2022-11-05T10:22:11.302Z,6.05
2022-11-05T10:24:47.097Z,4.97
2022-11-05T10:27:23.424Z,11.75
2022-11-05T10:29:55.660Z,5.60
2022-11-05T10:32:34.236Z,5.57
2022-11-05T10:35:08.576Z,5.35
2022-11-05T10:37:41.413Z,4.93
2022-11-05T10:40:20.049Z,5.63
2022-11-05T10:43:02.329Z,6.32
2022-11-05T10:45:45.463Z,5.53
2022-11-05T10:48:43.734Z,5.90
2022-11-05T10:51:16.922Z,5.88
2022-11-05T10:53:57.363Z,6.43
2022-11-05T10:56:37.430Z,6.85
2022-11-05T10:59:20.228Z,6.97
2022-11-05T11:02:01.216Z,6.28
2022-11-05T11:04:37.859Z,6.18
2022-11-05T11:07:21.974Z,5.40
2022-11-05T11:09:54.184Z,8.73
2022-11-05T11:12:31.443Z,8.55
2022-11-05T11:15:14.070Z,7.25
2022-11-05T11:17:46.124Z,6.55
2022-11-05T11:20:27.487Z,7.05
2022-11-05T11:23:02.253Z,11.05
2022-11-05T11:25:40.681Z,7.95
2022-11-05T11:28:19.296Z,10.88
2022-11-05T11:30:55.190Z,7.15
2022-11-05T11:33:29.219Z,8.30
2022-11-05T11:36:03.121Z,7.88
2022-11-05T11:38:36.852Z,7.90
2022-11-05T11:41:22.934Z,9.82
2022-11-05T11:43:58.849Z,7.40
2022-11-05T11:46:32.994Z,6.88
2022-11-05T11:49:06.589Z,7.15
2022-11-05T11:51:49.862Z,7.72
2022-11-05T11:54:28.862Z,7.60
2022-11-05T11:57:04.016Z,8.25
2022-11-05T12:00:06.641Z,9.50
2022-11-05T12:03:09.498Z,7.60
2022-11-05T12:05:47.160Z,8.25
2022-11-05T12:08:45.312Z,14.55
2022-11-05T12:11:25.246Z,7.70
2022-11-05T12:14:03.898Z,9.65
2022-11-05T12:17:02.999Z,8.98
2022-11-05T12:20:00.098Z,8.10
2022-11-05T12:22:51.184Z,8.13
2022-11-05T12:25:29.373Z,9.27
2022-11-05T12:28:19.599Z,9.00
2022-11-05T12:30:59.932Z,8.43
2022-11-05T12:36:23.406Z,7.88
2022-11-05T12:39:28.563Z,8.73
2022-11-05T12:42:05.696Z,7.90
2022-11-05T12:44:58.956Z,10.32
2022-11-05T12:47:49.511Z,7.47
2022-11-05T12:50:28.149Z,7.90
2022-11-05T12:53:28.397Z,8.18
2022-11-05T12:56:04.650Z,7.40
2022-11-05T12:58:44.396Z,7.57
2022-11-05T13:01:22.206Z,6.90
2022-11-05T13:03:58.116Z,8.77
2022-11-05T13:06:35.121Z,14.32
2022-11-05T13:09:13.296Z,7.72
2022-11-05T13:11:51.358Z,7.88
2022-11-05T13:14:30.210Z,8.30
2022-11-05T13:17:06.437Z,10.20
2022-11-05T13:19:43.499Z,10.02
2022-11-05T13:22:25.101Z,8.38
2022-11-05T13:25:02.529Z,9.20
2022-11-05T13:28:01.587Z,10.52
2022-11-05T13:30:38.233Z,9.20
2022-11-05T13:33:14.635Z,7.85
2022-11-05T13:36:12.522Z,9.60
2022-11-05T13:39:01.019Z,7.90
2022-11-05T13:41:48.472Z,7.80
2022-11-05T13:44:47.031Z,9.10
2022-11-05T13:47:43.318Z,7.82
2022-11-05T13:50:48.307Z,11.30
2022-11-05T13:53:49.926Z,8.48
2022-11-05T13:56:41.307Z,10.00
2022-11-05T13:59:42.338Z,10.45
2022-11-05T14:02:19.167Z,7.28
2022-11-05T14:05:00.788Z,9.82
2022-11-05T14:07:36.515Z,12.13
2022-11-05T14:10:21.595Z,9.50
2022-11-05T14:12:55.764Z,8.95
2022-11-05T14:15:30.327Z,9.88
2022-11-05T14:18:03.919Z,10.95
2022-11-05T14:20:46.648Z,8.65
2022-11-05T14:23:52.786Z,9.20
2022-11-05T14:26:26.112Z,8.25
2022-11-05T14:29:23.860Z,8.68
2022-11-05T14:32:13.599Z,9.55
2022-11-05T14:34:48.637Z,8.32
2022-11-05T14:37:41.707Z,22.98
2022-11-05T14:40:29.666Z,20.77
2022-11-05T14:43:04.578Z,13.85
2022-11-05T14:45:39.347Z,13.75
2022-11-05T14:48:30.857Z,13.43
2022-11-05T14:51:03.264Z,15.48
2022-11-05T14:53:39.590Z,14.63
2022-11-05T14:56:15.243Z,13.68
2022-11-05T14:58:47.247Z,10.65
2022-11-05T15:01:53.390Z,15.25
2022-11-05T15:04:27.748Z,10.65
2022-11-05T15:07:24.519Z,11.20
2022-11-05T15:10:07.203Z,10.70
2022-11-05T15:12:46.457Z,13.60
2022-11-05T15:15:22.814Z,12.13
2022-11-05T15:18:04.344Z,11.32
2022-11-05T15:20:40.341Z,10.18
2022-11-05T15:23:16.916Z,14.30
2022-11-05T15:26:02.420Z,12.52
2022-11-05T15:28:38.386Z,12.02
2022-11-05T15:31:26.798Z,10.15
2022-11-05T15:34:20.617Z,13.43
2022-11-05T15:36:55.940Z,9.63
2022-11-05T15:39:31.321Z,15.80
2022-11-05T15:42:11.623Z,14.75
2022-11-05T15:44:46.213Z,10.65
2022-11-05T15:47:21.489Z,9.65
2022-11-05T15:49:54.923Z,10.48
2022-11-05T15:52:33.757Z,9.00
2022-11-05T15:55:18.481Z,11.68
2022-11-05T15:57:58.195Z,10.98
2022-11-05T16:00:32.052Z,16.27
2022-11-05T16:03:07.134Z,18.02
2022-11-05T16:05:44.082Z,11.93
2022-11-05T16:08:20.173Z,11.80
2022-11-05T16:10:54.366Z,11.60
2022-11-05T16:13:34.645Z,11.48
2022-11-05T16:16:24.710Z,10.20
2022-11-05T16:18:56.631Z,13.32
2022-11-05T16:21:28.568Z,9.27
2022-11-05T16:24:00.792Z,10.02
2022-11-05T16:29:32.313Z,8.90
2022-11-05T16:32:14.639Z,8.13
2022-11-05T16:34:49.198Z,8.82
2022-11-05T16:37:23.826Z,9.20
2022-11-05T16:39:55.907Z,8.23
2022-11-05T16:42:48.513Z,7.38
2022-11-05T16:45:24.581Z,9.27
2022-11-05T16:47:56.473Z,7.82
2022-11-05T16:50:32.644Z,13.63
2022-11-05T16:53:04.585Z,9.13
2022-11-05T16:55:38.670Z,7.93
2022-11-05T16:58:22.053Z,8.85
2022-11-05T17:01:01.597Z,7.75
2022-11-05T17:03:33.700Z,6.75
2022-11-05T17:06:06.365Z,7.68
2022-11-05T17:08:38.399Z,6.90
2022-11-05T17:11:12.925Z,12.30
2022-11-05T17:13:45.121Z,10.23
2022-11-05T17:16:18.422Z,9.85
2022-11-05T17:18:51.109Z,8.23
2022-11-05T17:21:23.217Z,30.90
2022-11-05T17:23:55.145Z,11.90
2022-11-05T17:26:27.132Z,10.65
2022-11-05T17:28:59.452Z,9.88
2022-11-05T17:31:32.788Z,8.30
2022-11-05T17:34:05.292Z,10.93
2022-11-05T17:36:37.211Z,8.82
2022-11-05T17:39:10.982Z,8.00
2022-11-05T17:41:43.553Z,8.77
2022-11-05T17:44:15.718Z,11.52
2022-11-05T17:46:49.838Z,10.25
2022-11-05T17:49:21.760Z,12.25
2022-11-05T17:51:53.664Z,17.02
2022-11-05T17:54:25.658Z,12.45
2022-11-05T17:56:57.595Z,15.77
2022-11-05T17:59:30.013Z,15.40
2022-11-05T18:02:03.695Z,11.98
2022-11-05T18:04:35.666Z,18.75
2022-11-05T18:07:07.797Z,25.77
2022-11-05T18:09:39.914Z,14.38
2022-11-05T18:12:11.874Z,14.93
2022-11-05T18:14:43.811Z,17.17
2022-11-05T18:17:17.086Z,12.73
2022-11-05T18:19:49.008Z,14.63
2022-11-05T18:22:21.071Z,12.35
2022-11-05T18:24:53.681Z,12.13
2022-11-05T18:27:27.723Z,10.73
2022-11-05T18:29:59.775Z,8.95
2022-11-05T18:32:33.430Z,10.73
2022-11-05T18:35:06.709Z,8.93
2022-11-05T18:37:38.937Z,8.77
2022-11-05T18:40:11.703Z,8.93
2022-11-05T18:42:43.652Z,7.65
2022-11-05T18:45:15.574Z,8.18
2022-11-05T18:47:48.874Z,7.00
2022-11-05T18:50:20.840Z,8.00
2022-11-05T18:52:52.777Z,7.78
2022-11-05T18:55:25.041Z,8.45
2022-11-05T18:57:57.343Z,7.85
2022-11-05T19:00:29.256Z,8.63
2022-11-05T19:03:02.639Z,8.07
2022-11-05T19:05:35.242Z,8.65
2022-11-05T19:08:07.772Z,8.32
2022-11-05T19:10:40.464Z,7.55
2022-11-05T19:13:12.405Z,7.80
2022-11-05T19:15:44.564Z,9.50
2022-11-05T19:18:17.903Z,8.20
2022-11-05T19:20:49.837Z,9.02
2022-11-05T19:23:21.761Z,7.85
2022-11-05T19:25:53.788Z,8.68
2022-11-05T19:28:25.829Z,8.80
2022-11-05T19:30:57.769Z,9.80
2022-11-05T19:33:31.382Z,9.13
2022-11-05T19:36:05.814Z,9.07
2022-11-05T19:38:38.132Z,9.27
2022-11-05T19:41:12.044Z,9.35
2022-11-05T19:43:44.432Z,9.45
2022-11-05T19:46:18.699Z,10.27
2022-11-05T19:48:52.653Z,10.45
2022-11-05T19:51:26.589Z,11.13
2022-11-05T19:54:00.532Z,10.15
2022-11-05T19:56:34.462Z,9.85
2022-11-05T19:59:07.132Z,11.55
2022-11-05T20:01:39.161Z,12.13
2022-11-05T20:04:12.757Z,11.52
2022-11-05T20:06:45.017Z,12.30
2022-11-05T20:09:22.124Z,10.70
2022-11-05T20:11:56.612Z,12.32
2022-11-05T20:14:29.734Z,12.00
2022-11-05T20:17:01.656Z,13.65
2022-11-05T20:19:35.502Z,12.70
2022-11-05T20:22:07.425Z,12.93
2022-11-05T20:24:39.421Z,12.80
2022-11-05T20:27:11.411Z,13.25
2022-11-05T20:29:43.379Z,12.07
2022-11-05T20:32:15.318Z,12.48
2022-11-05T20:34:48.643Z,12.68
2022-11-05T20:37:20.590Z,13.52
2022-11-05T20:39:52.530Z,12.55
2022-11-05T20:42:24.489Z,12.30
2022-11-05T20:44:56.381Z,13.05
2022-11-05T20:47:28.471Z,14.38
2022-11-05T20:50:04.015Z,14.15
2022-11-05T20:52:35.912Z,14.52
2022-11-05T20:55:09.674Z,12.18
2022-11-05T20:57:41.625Z,14.15
2022-11-05T21:00:14.902Z,14.77
2022-11-05T21:02:46.889Z,13.50
2022-11-05T21:05:20.396Z,14.43
2022-11-05T21:07:52.431Z,12.95
2022-11-05T21:10:24.806Z,15.40
2022-11-05T21:12:56.715Z,13.40
2022-11-05T21:15:28.711Z,15.23
2022-11-05T21:18:01.096Z,14.65
2022-11-05T21:20:34.391Z,14.45
2022-11-05T21:23:06.301Z,13.63
2022-11-05T21:25:39.072Z,15.05
2022-11-05T21:28:12.451Z,14.50
2022-11-05T21:30:46.194Z,12.73
2022-11-05T21:33:19.149Z,12.35
2022-11-05T21:35:52.456Z,14.07
2022-11-05T21:38:24.931Z,13.38
2022-11-05T21:41:00.662Z,13.38
2022-11-05T21:43:33.041Z,14.23
2022-11-05T21:46:05.309Z,13.20
2022-11-05T21:48:37.380Z,12.55
2022-11-05T21:51:29.990Z,12.57
2022-11-05T21:54:20.086Z,11.73
2022-11-05T21:57:11.091Z,12.27
2022-11-05T21:59:49.145Z,12.88
2022-11-05T22:02:23.435Z,11.75
2022-11-05T22:04:57.451Z,11.75
2022-11-05T22:07:33.000Z,12.20
2022-11-05T22:10:10.747Z,11.18
2022-11-05T22:12:46.760Z,11.18
2022-11-05T22:15:18.733Z,10.20
2022-11-05T22:17:51.020Z,10.88
2022-11-05T22:20:22.931Z,11.25
2022-11-05T22:22:56.303Z,11.43
2022-11-05T22:25:28.274Z,10.43
2022-11-05T22:28:00.249Z,11.48
2022-11-05T22:30:34.544Z,10.77
2022-11-05T22:33:06.589Z,9.63
2022-11-05T22:35:39.483Z,10.18
2022-11-05T22:38:13.111Z,9.13
2022-11-05T22:40:45.334Z,9.77
2022-11-05T22:43:17.300Z,8.77
2022-11-05T22:45:49.260Z,9.65
2022-11-05T22:48:21.223Z,9.02
2022-11-05T22:50:53.145Z,8.48
2022-11-05T22:53:26.461Z,8.35
2022-11-05T22:55:58.408Z,8.90
2022-11-05T22:58:30.342Z,9.15
2022-11-05T23:01:03.026Z,8.15
2022-11-05T23:03:35.218Z,7.45
2022-11-05T23:06:30.500Z,6.93
2022-11-05T23:09:24.463Z,6.63
2022-11-05T23:11:57.443Z,7.13
2022-11-05T23:14:29.528Z,7.65
2022-11-05T23:17:20.137Z,7.03
2022-11-05T23:20:10.307Z,6.88
2022-11-05T23:23:00.475Z,7.43
2022-11-05T23:25:33.827Z,6.68
2022-11-05T23:28:09.854Z,6.10
2022-11-05T23:31:10.044Z,7.40
2022-11-05T23:33:41.940Z,6.72
2022-11-05T23:36:32.102Z,6.18
2022-11-05T23:39:04.197Z,6.10
2022-11-05T23:41:56.162Z,5.93
2022-11-05T23:44:46.406Z,5.85
2022-11-05T23:47:36.781Z,6.65
2022-11-05T23:52:40.691Z,4.72
2022-11-05T23:55:12.704Z,5.15
2022-11-05T23:57:46.270Z,5.00
